Disclaimer

Please do not use the information listed here in-flight or in-navigation, as they are not provided to us by the airports but are provided by volunteers, so they might be outdated.

Search


Regions


Airport information page

Radio informations:
KAUHAVA TWR - 119.7 MHz
KAUHAVA RADAR - 128.15 MHz
KAUHAVA APP - 130.1 MHz
Aerodrome flight information system (AFIS) - 123.6 MHz

Airport informations:
Latitude: 62° 41' 31.63" N
Longitude: 022° 49' 56.38" E
Elevation: 302 feet - 92 meters
Operating hours: N/A
Operating agency: Civil government, landing fees and diplomatic clearance may be required
Timezone: UTC+2(+3DT) - Last Sunday in March to last Sunday in October
Fuel: Jet A1, without icing nhibitor.

100/130 MIL Spec, low lead, aviation gasoline (BLUE)

Runway information:
14/32 - 5062 x 98 feet< - >1543 x 30 meters

Recent METARs:
EFSI 210550Z AUTO 00000KT CAVOK M11/M12 Q1034
EFSI 210620Z AUTO 00000KT CAVOK M11/M13 Q1034
EFSI 210650Z AUTO 00000KT CAVOK M11/M12 Q1034

Airport on the map: